sensor_id;sensor_type;location;lat;lon;timestamp;P1;durP1;ratioP1;P2;durP2;ratioP2
78612;SDS011;67933;51.060;3.638;2023-08-24T00:00:29;8.02;;;5.30;;
78612;SDS011;67933;51.060;3.638;2023-08-24T00:02:57;8.80;;;5.13;;
78612;SDS011;67933;51.060;3.638;2023-08-24T00:05:23;8.75;;;5.22;;
78612;SDS011;67933;51.060;3.638;2023-08-24T00:07:48;11.00;;;4.95;;
78612;SDS011;67933;51.060;3.638;2023-08-24T00:10:14;8.90;;;4.97;;
78612;SDS011;67933;51.060;3.638;2023-08-24T00:12:40;8.15;;;5.20;;
78612;SDS011;67933;51.060;3.638;2023-08-24T00:15:07;7.63;;;4.35;;
78612;SDS011;67933;51.060;3.638;2023-08-24T00:17:34;8.38;;;4.95;;
78612;SDS011;67933;51.060;3.638;2023-08-24T00:19:59;9.45;;;5.15;;
78612;SDS011;67933;51.060;3.638;2023-08-24T00:22:26;10.32;;;4.90;;
78612;SDS011;67933;51.060;3.638;2023-08-24T00:24:51;9.93;;;5.13;;
78612;SDS011;67933;51.060;3.638;2023-08-24T00:27:16;7.57;;;4.47;;
78612;SDS011;67933;51.060;3.638;2023-08-24T00:29:42;9.52;;;4.90;;
78612;SDS011;67933;51.060;3.638;2023-08-24T00:32:07;7.32;;;4.82;;
78612;SDS011;67933;51.060;3.638;2023-08-24T00:34:33;10.43;;;4.57;;
78612;SDS011;67933;51.060;3.638;2023-08-24T00:36:58;10.43;;;4.93;;
78612;SDS011;67933;51.060;3.638;2023-08-24T00:39:24;8.35;;;5.22;;
78612;SDS011;67933;51.060;3.638;2023-08-24T00:41:49;7.68;;;4.95;;
78612;SDS011;67933;51.060;3.638;2023-08-24T00:44:15;9.68;;;5.57;;
78612;SDS011;67933;51.060;3.638;2023-08-24T00:46:40;9.45;;;5.20;;
78612;SDS011;67933;51.060;3.638;2023-08-24T00:49:06;9.23;;;4.97;;
78612;SDS011;67933;51.060;3.638;2023-08-24T00:51:32;6.88;;;4.55;;
78612;SDS011;67933;51.060;3.638;2023-08-24T00:53:57;7.32;;;4.75;;
78612;SDS011;67933;51.060;3.638;2023-08-24T00:56:23;11.52;;;5.45;;
78612;SDS011;67933;51.060;3.638;2023-08-24T00:58:49;7.65;;;5.00;;
78612;SDS011;67933;51.060;3.638;2023-08-24T01:01:19;6.80;;;4.70;;
78612;SDS011;67933;51.060;3.638;2023-08-24T01:03:45;8.32;;;5.13;;
78612;SDS011;67933;51.060;3.638;2023-08-24T01:06:10;8.40;;;4.78;;
78612;SDS011;67933;51.060;3.638;2023-08-24T01:08:36;7.00;;;4.78;;
78612;SDS011;67933;51.060;3.638;2023-08-24T01:11:05;8.00;;;5.03;;
78612;SDS011;67933;51.060;3.638;2023-08-24T01:16:40;9.52;;;4.70;;
78612;SDS011;67933;51.060;3.638;2023-08-24T01:19:21;9.23;;;5.07;;
78612;SDS011;67933;51.060;3.638;2023-08-24T01:21:58;7.75;;;4.90;;
78612;SDS011;67933;51.060;3.638;2023-08-24T01:24:38;9.10;;;4.90;;
78612;SDS011;67933;51.060;3.638;2023-08-24T01:27:09;12.98;;;5.85;;
78612;SDS011;67933;51.060;3.638;2023-08-24T01:29:36;11.52;;;5.82;;
78612;SDS011;67933;51.060;3.638;2023-08-24T01:32:03;9.82;;;6.13;;
78612;SDS011;67933;51.060;3.638;2023-08-24T01:34:29;11.07;;;6.75;;
78612;SDS011;67933;51.060;3.638;2023-08-24T01:36:54;11.25;;;6.05;;
78612;SDS011;67933;51.060;3.638;2023-08-24T01:39:42;9.57;;;6.47;;
78612;SDS011;67933;51.060;3.638;2023-08-24T01:42:13;10.55;;;6.70;;
78612;SDS011;67933;51.060;3.638;2023-08-24T01:44:43;17.02;;;7.07;;
78612;SDS011;67933;51.060;3.638;2023-08-24T01:47:14;11.18;;;7.22;;
78612;SDS011;67933;51.060;3.638;2023-08-24T01:49:41;9.88;;;6.90;;
78612;SDS011;67933;51.060;3.638;2023-08-24T01:52:07;11.63;;;6.55;;
78612;SDS011;67933;51.060;3.638;2023-08-24T01:54:34;12.25;;;7.50;;
78612;SDS011;67933;51.060;3.638;2023-08-24T01:57:00;12.20;;;7.45;;
78612;SDS011;67933;51.060;3.638;2023-08-24T01:59:25;13.30;;;7.03;;
78612;SDS011;67933;51.060;3.638;2023-08-24T02:01:50;10.75;;;7.00;;
78612;SDS011;67933;51.060;3.638;2023-08-24T02:04:16;14.40;;;7.40;;
78612;SDS011;67933;51.060;3.638;2023-08-24T02:06:41;14.07;;;7.97;;
78612;SDS011;67933;51.060;3.638;2023-08-24T02:09:07;13.68;;;8.18;;
78612;SDS011;67933;51.060;3.638;2023-08-24T02:11:32;13.13;;;7.10;;
78612;SDS011;67933;51.060;3.638;2023-08-24T02:13:58;14.18;;;8.10;;
78612;SDS011;67933;51.060;3.638;2023-08-24T02:16:23;13.55;;;7.82;;
78612;SDS011;67933;51.060;3.638;2023-08-24T02:18:48;11.80;;;7.78;;
78612;SDS011;67933;51.060;3.638;2023-08-24T02:21:14;12.70;;;7.60;;
78612;SDS011;67933;51.060;3.638;2023-08-24T02:23:41;10.68;;;7.90;;
78612;SDS011;67933;51.060;3.638;2023-08-24T02:26:06;13.23;;;7.43;;
78612;SDS011;67933;51.060;3.638;2023-08-24T02:28:32;13.70;;;7.80;;
78612;SDS011;67933;51.060;3.638;2023-08-24T02:31:05;15.52;;;8.10;;
78612;SDS011;67933;51.060;3.638;2023-08-24T02:33:31;13.82;;;7.65;;
78612;SDS011;67933;51.060;3.638;2023-08-24T02:35:56;10.90;;;7.45;;
78612;SDS011;67933;51.060;3.638;2023-08-24T02:38:22;13.98;;;7.88;;
78612;SDS011;67933;51.060;3.638;2023-08-24T02:40:48;13.00;;;7.50;;
78612;SDS011;67933;51.060;3.638;2023-08-24T02:43:14;13.57;;;7.88;;
78612;SDS011;67933;51.060;3.638;2023-08-24T02:45:39;11.13;;;7.45;;
78612;SDS011;67933;51.060;3.638;2023-08-24T02:48:05;12.68;;;8.10;;
78612;SDS011;67933;51.060;3.638;2023-08-24T02:50:30;10.93;;;7.13;;
78612;SDS011;67933;51.060;3.638;2023-08-24T02:52:56;14.98;;;8.30;;
78612;SDS011;67933;51.060;3.638;2023-08-24T02:55:23;15.63;;;7.90;;
78612;SDS011;67933;51.060;3.638;2023-08-24T02:57:49;12.55;;;8.15;;
78612;SDS011;67933;51.060;3.638;2023-08-24T03:00:15;12.10;;;7.63;;
78612;SDS011;67933;51.060;3.638;2023-08-24T03:02:40;9.30;;;7.10;;
78612;SDS011;67933;51.060;3.638;2023-08-24T03:05:05;12.27;;;7.57;;
78612;SDS011;67933;51.060;3.638;2023-08-24T03:07:31;12.55;;;7.57;;
78612;SDS011;67933;51.060;3.638;2023-08-24T03:09:57;12.02;;;8.40;;
78612;SDS011;67933;51.060;3.638;2023-08-24T03:12:22;12.38;;;7.53;;
78612;SDS011;67933;51.060;3.638;2023-08-24T03:14:50;13.45;;;7.57;;
78612;SDS011;67933;51.060;3.638;2023-08-24T03:17:17;12.60;;;7.78;;
78612;SDS011;67933;51.060;3.638;2023-08-24T03:19:43;11.13;;;7.57;;
78612;SDS011;67933;51.060;3.638;2023-08-24T03:22:08;12.55;;;8.18;;
78612;SDS011;67933;51.060;3.638;2023-08-24T03:24:33;12.05;;;6.82;;
78612;SDS011;67933;51.060;3.638;2023-08-24T03:26:59;11.98;;;7.38;;
78612;SDS011;67933;51.060;3.638;2023-08-24T03:29:24;12.50;;;7.88;;
78612;SDS011;67933;51.060;3.638;2023-08-24T03:31:50;10.30;;;7.22;;
78612;SDS011;67933;51.060;3.638;2023-08-24T03:34:15;12.48;;;7.97;;
78612;SDS011;67933;51.060;3.638;2023-08-24T03:36:41;13.25;;;8.13;;
78612;SDS011;67933;51.060;3.638;2023-08-24T03:39:07;11.70;;;7.40;;
78612;SDS011;67933;51.060;3.638;2023-08-24T03:41:32;9.27;;;7.50;;
78612;SDS011;67933;51.060;3.638;2023-08-24T03:43:58;10.50;;;8.80;;
78612;SDS011;67933;51.060;3.638;2023-08-24T03:46:24;10.07;;;7.90;;
78612;SDS011;67933;51.060;3.638;2023-08-24T03:48:49;10.73;;;6.97;;
78612;SDS011;67933;51.060;3.638;2023-08-24T03:51:15;11.27;;;7.70;;
78612;SDS011;67933;51.060;3.638;2023-08-24T03:53:40;11.52;;;7.88;;
78612;SDS011;67933;51.060;3.638;2023-08-24T03:56:06;11.27;;;8.10;;
78612;SDS011;67933;51.060;3.638;2023-08-24T03:58:31;12.93;;;8.65;;
78612;SDS011;67933;51.060;3.638;2023-08-24T04:00:56;12.50;;;8.48;;
78612;SDS011;67933;51.060;3.638;2023-08-24T04:03:22;13.57;;;8.95;;
78612;SDS011;67933;51.060;3.638;2023-08-24T04:05:47;12.13;;;8.15;;
78612;SDS011;67933;51.060;3.638;2023-08-24T04:08:13;15.07;;;8.65;;
78612;SDS011;67933;51.060;3.638;2023-08-24T04:10:38;10.30;;;7.72;;
78612;SDS011;67933;51.060;3.638;2023-08-24T04:13:04;12.02;;;8.85;;
78612;SDS011;67933;51.060;3.638;2023-08-24T04:15:29;11.23;;;8.18;;
78612;SDS011;67933;51.060;3.638;2023-08-24T04:17:55;11.30;;;8.75;;
78612;SDS011;67933;51.060;3.638;2023-08-24T04:20:20;10.57;;;8.48;;
78612;SDS011;67933;51.060;3.638;2023-08-24T04:22:46;12.32;;;8.32;;
78612;SDS011;67933;51.060;3.638;2023-08-24T04:25:11;12.40;;;8.65;;
78612;SDS011;67933;51.060;3.638;2023-08-24T04:27:37;13.52;;;9.05;;
78612;SDS011;67933;51.060;3.638;2023-08-24T04:30:02;11.95;;;8.40;;
78612;SDS011;67933;51.060;3.638;2023-08-24T04:32:28;12.18;;;8.13;;
78612;SDS011;67933;51.060;3.638;2023-08-24T04:34:54;11.00;;;8.38;;
78612;SDS011;67933;51.060;3.638;2023-08-24T04:37:19;15.18;;;10.43;;
78612;SDS011;67933;51.060;3.638;2023-08-24T04:39:46;15.20;;;9.63;;
78612;SDS011;67933;51.060;3.638;2023-08-24T04:42:11;16.52;;;10.45;;
78612;SDS011;67933;51.060;3.638;2023-08-24T04:44:37;16.05;;;9.88;;
78612;SDS011;67933;51.060;3.638;2023-08-24T04:47:02;14.00;;;9.00;;
78612;SDS011;67933;51.060;3.638;2023-08-24T04:49:29;13.25;;;9.43;;
78612;SDS011;67933;51.060;3.638;2023-08-24T04:51:55;11.70;;;8.80;;
78612;SDS011;67933;51.060;3.638;2023-08-24T04:54:20;13.00;;;9.52;;
78612;SDS011;67933;51.060;3.638;2023-08-24T04:56:46;16.27;;;10.32;;
78612;SDS011;67933;51.060;3.638;2023-08-24T04:59:12;15.25;;;10.45;;
78612;SDS011;67933;51.060;3.638;2023-08-24T05:01:37;16.45;;;10.13;;
78612;SDS011;67933;51.060;3.638;2023-08-24T05:04:02;16.17;;;10.30;;
78612;SDS011;67933;51.060;3.638;2023-08-24T05:06:28;17.65;;;10.68;;
78612;SDS011;67933;51.060;3.638;2023-08-24T05:08:54;14.52;;;10.88;;
78612;SDS011;67933;51.060;3.638;2023-08-24T05:11:21;15.88;;;11.40;;
78612;SDS011;67933;51.060;3.638;2023-08-24T05:13:49;18.45;;;11.05;;
78612;SDS011;67933;51.060;3.638;2023-08-24T05:16:15;14.38;;;10.75;;
78612;SDS011;67933;51.060;3.638;2023-08-24T05:18:40;17.42;;;11.52;;
78612;SDS011;67933;51.060;3.638;2023-08-24T05:21:06;17.77;;;11.23;;
78612;SDS011;67933;51.060;3.638;2023-08-24T05:23:32;16.67;;;11.10;;
78612;SDS011;67933;51.060;3.638;2023-08-24T05:25:58;20.33;;;11.50;;
78612;SDS011;67933;51.060;3.638;2023-08-24T05:28:25;19.98;;;11.07;;
78612;SDS011;67933;51.060;3.638;2023-08-24T05:30:52;21.80;;;12.48;;
78612;SDS011;67933;51.060;3.638;2023-08-24T05:33:19;15.93;;;11.20;;
78612;SDS011;67933;51.060;3.638;2023-08-24T05:35:45;17.23;;;11.13;;
78612;SDS011;67933;51.060;3.638;2023-08-24T05:38:10;16.35;;;11.40;;
78612;SDS011;67933;51.060;3.638;2023-08-24T05:40:35;15.68;;;11.00;;
78612;SDS011;67933;51.060;3.638;2023-08-24T05:43:02;26.60;;;12.20;;
78612;SDS011;67933;51.060;3.638;2023-08-24T05:45:28;41.60;;;13.68;;
78612;SDS011;67933;51.060;3.638;2023-08-24T05:47:53;27.80;;;11.98;;
78612;SDS011;67933;51.060;3.638;2023-08-24T05:50:18;24.42;;;11.98;;
78612;SDS011;67933;51.060;3.638;2023-08-24T05:52:44;34.80;;;13.30;;
78612;SDS011;67933;51.060;3.638;2023-08-24T05:55:09;64.50;;;15.77;;
78612;SDS011;67933;51.060;3.638;2023-08-24T05:57:35;24.02;;;10.57;;
78612;SDS011;67933;51.060;3.638;2023-08-24T06:00:00;20.48;;;11.15;;
78612;SDS011;67933;51.060;3.638;2023-08-24T06:02:25;14.30;;;10.93;;
78612;SDS011;67933;51.060;3.638;2023-08-24T06:04:51;13.82;;;10.13;;
78612;SDS011;67933;51.060;3.638;2023-08-24T06:07:16;15.50;;;10.23;;
78612;SDS011;67933;51.060;3.638;2023-08-24T06:09:43;15.35;;;10.88;;
78612;SDS011;67933;51.060;3.638;2023-08-24T06:12:08;15.40;;;9.70;;
78612;SDS011;67933;51.060;3.638;2023-08-24T06:14:33;15.07;;;9.40;;
78612;SDS011;67933;51.060;3.638;2023-08-24T06:16:59;35.35;;;12.50;;
78612;SDS011;67933;51.060;3.638;2023-08-24T06:19:24;15.60;;;10.25;;
78612;SDS011;67933;51.060;3.638;2023-08-24T06:21:50;19.08;;;10.18;;
78612;SDS011;67933;51.060;3.638;2023-08-24T06:24:15;19.23;;;10.90;;
78612;SDS011;67933;51.060;3.638;2023-08-24T06:26:41;12.88;;;9.38;;
78612;SDS011;67933;51.060;3.638;2023-08-24T06:29:06;26.58;;;10.43;;
78612;SDS011;67933;51.060;3.638;2023-08-24T06:31:32;16.92;;;9.43;;
78612;SDS011;67933;51.060;3.638;2023-08-24T06:33:58;17.08;;;9.93;;
78612;SDS011;67933;51.060;3.638;2023-08-24T06:36:23;12.98;;;8.82;;
78612;SDS011;67933;51.060;3.638;2023-08-24T06:38:49;12.88;;;9.07;;
78612;SDS011;67933;51.060;3.638;2023-08-24T06:41:14;13.88;;;9.68;;
78612;SDS011;67933;51.060;3.638;2023-08-24T06:43:39;12.77;;;9.45;;
78612;SDS011;67933;51.060;3.638;2023-08-24T06:46:05;11.90;;;8.90;;
78612;SDS011;67933;51.060;3.638;2023-08-24T06:48:34;16.60;;;8.70;;
78612;SDS011;67933;51.060;3.638;2023-08-24T06:51:00;13.57;;;9.10;;
78612;SDS011;67933;51.060;3.638;2023-08-24T06:53:27;15.18;;;9.88;;
78612;SDS011;67933;51.060;3.638;2023-08-24T06:55:56;12.48;;;9.32;;
78612;SDS011;67933;51.060;3.638;2023-08-24T06:58:21;13.68;;;9.55;;
78612;SDS011;67933;51.060;3.638;2023-08-24T07:00:47;14.90;;;9.32;;
78612;SDS011;67933;51.060;3.638;2023-08-24T07:03:13;12.73;;;9.25;;
78612;SDS011;67933;51.060;3.638;2023-08-24T07:05:38;11.63;;;8.35;;
78612;SDS011;67933;51.060;3.638;2023-08-24T07:08:05;30.95;;;10.60;;
78612;SDS011;67933;51.060;3.638;2023-08-24T07:10:30;16.30;;;10.10;;
78612;SDS011;67933;51.060;3.638;2023-08-24T07:12:56;13.23;;;8.35;;
78612;SDS011;67933;51.060;3.638;2023-08-24T07:15:21;13.45;;;9.02;;
78612;SDS011;67933;51.060;3.638;2023-08-24T07:17:46;12.75;;;8.82;;
78612;SDS011;67933;51.060;3.638;2023-08-24T07:20:12;13.23;;;8.88;;
78612;SDS011;67933;51.060;3.638;2023-08-24T07:22:38;14.52;;;8.60;;
78612;SDS011;67933;51.060;3.638;2023-08-24T07:25:04;11.13;;;8.88;;
78612;SDS011;67933;51.060;3.638;2023-08-24T07:27:34;18.23;;;9.15;;
78612;SDS011;67933;51.060;3.638;2023-08-24T07:30:00;35.67;;;12.48;;
78612;SDS011;67933;51.060;3.638;2023-08-24T07:32:26;13.30;;;9.48;;
78612;SDS011;67933;51.060;3.638;2023-08-24T07:34:52;15.45;;;8.38;;
78612;SDS011;67933;51.060;3.638;2023-08-24T07:37:18;13.40;;;9.50;;
78612;SDS011;67933;51.060;3.638;2023-08-24T07:39:43;12.77;;;8.48;;
78612;SDS011;67933;51.060;3.638;2023-08-24T07:42:08;12.98;;;9.55;;
78612;SDS011;67933;51.060;3.638;2023-08-24T07:44:34;14.18;;;9.00;;
78612;SDS011;67933;51.060;3.638;2023-08-24T07:46:59;15.70;;;9.25;;
78612;SDS011;67933;51.060;3.638;2023-08-24T07:49:25;13.50;;;8.85;;
78612;SDS011;67933;51.060;3.638;2023-08-24T07:51:51;20.27;;;9.05;;
78612;SDS011;67933;51.060;3.638;2023-08-24T07:54:16;13.30;;;8.77;;
78612;SDS011;67933;51.060;3.638;2023-08-24T07:56:42;13.82;;;9.00;;
78612;SDS011;67933;51.060;3.638;2023-08-24T07:59:07;14.40;;;9.45;;
78612;SDS011;67933;51.060;3.638;2023-08-24T08:01:34;12.70;;;8.70;;
78612;SDS011;67933;51.060;3.638;2023-08-24T08:03:59;16.02;;;8.43;;
78612;SDS011;67933;51.060;3.638;2023-08-24T08:06:25;12.60;;;8.70;;
78612;SDS011;67933;51.060;3.638;2023-08-24T08:08:51;13.88;;;8.68;;
78612;SDS011;67933;51.060;3.638;2023-08-24T08:11:17;14.30;;;9.25;;
78612;SDS011;67933;51.060;3.638;2023-08-24T08:13:43;12.50;;;9.23;;
78612;SDS011;67933;51.060;3.638;2023-08-24T08:16:08;14.88;;;9.32;;
78612;SDS011;67933;51.060;3.638;2023-08-24T08:18:35;15.52;;;9.30;;
78612;SDS011;67933;51.060;3.638;2023-08-24T08:21:01;13.27;;;9.57;;
78612;SDS011;67933;51.060;3.638;2023-08-24T08:23:33;13.95;;;9.50;;
78612;SDS011;67933;51.060;3.638;2023-08-24T08:25:58;17.05;;;10.00;;
78612;SDS011;67933;51.060;3.638;2023-08-24T08:28:24;15.38;;;10.55;;
78612;SDS011;67933;51.060;3.638;2023-08-24T08:30:49;16.80;;;9.82;;
78612;SDS011;67933;51.060;3.638;2023-08-24T08:33:14;16.73;;;10.77;;
78612;SDS011;67933;51.060;3.638;2023-08-24T08:35:40;16.40;;;10.25;;
78612;SDS011;67933;51.060;3.638;2023-08-24T08:38:06;15.20;;;10.80;;
78612;SDS011;67933;51.060;3.638;2023-08-24T08:40:33;16.02;;;11.30;;
78612;SDS011;67933;51.060;3.638;2023-08-24T08:43:01;16.20;;;10.27;;
78612;SDS011;67933;51.060;3.638;2023-08-24T08:45:27;13.70;;;10.02;;
78612;SDS011;67933;51.060;3.638;2023-08-24T08:48:00;12.48;;;9.93;;
78612;SDS011;67933;51.060;3.638;2023-08-24T08:50:26;15.20;;;10.20;;
78612;SDS011;67933;51.060;3.638;2023-08-24T08:52:52;19.27;;;12.52;;
78612;SDS011;67933;51.060;3.638;2023-08-24T08:55:18;21.88;;;12.75;;
78612;SDS011;67933;51.060;3.638;2023-08-24T08:57:47;19.27;;;12.88;;
78612;SDS011;67933;51.060;3.638;2023-08-24T09:00:14;16.38;;;11.77;;
78612;SDS011;67933;51.060;3.638;2023-08-24T09:02:45;22.83;;;14.13;;
78612;SDS011;67933;51.060;3.638;2023-08-24T09:05:11;20.08;;;13.68;;
78612;SDS011;67933;51.060;3.638;2023-08-24T09:07:40;19.20;;;13.65;;
78612;SDS011;67933;51.060;3.638;2023-08-24T09:10:06;26.58;;;15.32;;
78612;SDS011;67933;51.060;3.638;2023-08-24T09:12:33;20.98;;;15.25;;
78612;SDS011;67933;51.060;3.638;2023-08-24T09:14:59;28.08;;;15.52;;
78612;SDS011;67933;51.060;3.638;2023-08-24T09:17:24;24.60;;;15.68;;
78612;SDS011;67933;51.060;3.638;2023-08-24T09:19:50;25.13;;;17.55;;
78612;SDS011;67933;51.060;3.638;2023-08-24T09:22:18;20.02;;;14.27;;
78612;SDS011;67933;51.060;3.638;2023-08-24T09:24:48;19.35;;;13.23;;
78612;SDS011;67933;51.060;3.638;2023-08-24T09:27:18;20.02;;;13.93;;
78612;SDS011;67933;51.060;3.638;2023-08-24T09:29:48;20.40;;;12.60;;
78612;SDS011;67933;51.060;3.638;2023-08-24T09:32:21;19.08;;;12.10;;
78612;SDS011;67933;51.060;3.638;2023-08-24T09:34:52;18.65;;;12.30;;
78612;SDS011;67933;51.060;3.638;2023-08-24T09:37:18;18.75;;;13.60;;
78612;SDS011;67933;51.060;3.638;2023-08-24T09:39:44;17.75;;;11.80;;
78612;SDS011;67933;51.060;3.638;2023-08-24T09:42:10;19.33;;;12.80;;
78612;SDS011;67933;51.060;3.638;2023-08-24T09:44:35;18.77;;;11.55;;
78612;SDS011;67933;51.060;3.638;2023-08-24T09:47:01;16.23;;;11.82;;
78612;SDS011;67933;51.060;3.638;2023-08-24T09:49:28;17.83;;;13.23;;
78612;SDS011;67933;51.060;3.638;2023-08-24T09:51:55;18.40;;;12.00;;
78612;SDS011;67933;51.060;3.638;2023-08-24T09:54:27;16.35;;;11.68;;
78612;SDS011;67933;51.060;3.638;2023-08-24T09:56:53;17.33;;;11.82;;
78612;SDS011;67933;51.060;3.638;2023-08-24T09:59:22;18.58;;;11.75;;
78612;SDS011;67933;51.060;3.638;2023-08-24T10:01:50;17.40;;;13.02;;
78612;SDS011;67933;51.060;3.638;2023-08-24T10:04:22;17.92;;;12.05;;
78612;SDS011;67933;51.060;3.638;2023-08-24T10:06:59;16.92;;;11.57;;
78612;SDS011;67933;51.060;3.638;2023-08-24T10:09:39;14.25;;;11.63;;
78612;SDS011;67933;51.060;3.638;2023-08-24T10:12:18;14.38;;;10.40;;
78612;SDS011;67933;51.060;3.638;2023-08-24T10:14:53;16.27;;;9.73;;
78612;SDS011;67933;51.060;3.638;2023-08-24T10:17:26;12.95;;;8.48;;
78612;SDS011;67933;51.060;3.638;2023-08-24T10:19:52;15.07;;;7.90;;
78612;SDS011;67933;51.060;3.638;2023-08-24T10:22:19;11.88;;;7.20;;
78612;SDS011;67933;51.060;3.638;2023-08-24T10:24:45;11.13;;;6.32;;
78612;SDS011;67933;51.060;3.638;2023-08-24T10:27:12;7.65;;;5.88;;
78612;SDS011;67933;51.060;3.638;2023-08-24T10:29:39;9.32;;;5.82;;
78612;SDS011;67933;51.060;3.638;2023-08-24T10:32:04;8.23;;;5.63;;
78612;SDS011;67933;51.060;3.638;2023-08-24T10:34:31;7.10;;;4.72;;
78612;SDS011;67933;51.060;3.638;2023-08-24T10:37:04;5.53;;;4.45;;
78612;SDS011;67933;51.060;3.638;2023-08-24T10:39:32;8.32;;;4.72;;
78612;SDS011;67933;51.060;3.638;2023-08-24T10:42:00;7.10;;;4.93;;
78612;SDS011;67933;51.060;3.638;2023-08-24T10:44:35;6.03;;;4.22;;
78612;SDS011;67933;51.060;3.638;2023-08-24T10:47:07;5.47;;;4.32;;
78612;SDS011;67933;51.060;3.638;2023-08-24T10:49:57;9.75;;;4.10;;
78612;SDS011;67933;51.060;3.638;2023-08-24T10:52:25;6.38;;;3.40;;
78612;SDS011;67933;51.060;3.638;2023-08-24T10:54:55;6.30;;;3.42;;
78612;SDS011;67933;51.060;3.638;2023-08-24T11:02:31;5.63;;;3.50;;
78612;SDS011;67933;51.060;3.638;2023-08-24T11:05:14;6.43;;;3.13;;
78612;SDS011;67933;51.060;3.638;2023-08-24T11:07:48;6.05;;;3.40;;
78612;SDS011;67933;51.060;3.638;2023-08-24T11:10:15;6.70;;;4.10;;
78612;SDS011;67933;51.060;3.638;2023-08-24T11:15:32;5.35;;;3.38;;
78612;SDS011;67933;51.060;3.638;2023-08-24T11:18:11;4.95;;;3.97;;
78612;SDS011;67933;51.060;3.638;2023-08-24T11:20:55;5.68;;;3.50;;
78612;SDS011;67933;51.060;3.638;2023-08-24T11:23:30;5.20;;;3.55;;
78612;SDS011;67933;51.060;3.638;2023-08-24T11:25:57;4.95;;;3.80;;
78612;SDS011;67933;51.060;3.638;2023-08-24T11:28:27;5.97;;;3.72;;
78612;SDS011;67933;51.060;3.638;2023-08-24T11:30:54;7.47;;;4.15;;
78612;SDS011;67933;51.060;3.638;2023-08-24T11:33:34;6.63;;;3.65;;
78612;SDS011;67933;51.060;3.638;2023-08-24T11:36:00;6.88;;;3.50;;
78612;SDS011;67933;51.060;3.638;2023-08-24T11:41:12;5.18;;;3.33;;
78612;SDS011;67933;51.060;3.638;2023-08-24T11:43:46;4.70;;;3.80;;
78612;SDS011;67933;51.060;3.638;2023-08-24T11:46:13;6.07;;;3.63;;
78612;SDS011;67933;51.060;3.638;2023-08-24T11:48:41;5.13;;;3.90;;
78612;SDS011;67933;51.060;3.638;2023-08-24T11:51:11;7.65;;;3.83;;
78612;SDS011;67933;51.060;3.638;2023-08-24T11:53:41;5.35;;;3.42;;
78612;SDS011;67933;51.060;3.638;2023-08-24T11:56:08;4.90;;;3.30;;
78612;SDS011;67933;51.060;3.638;2023-08-24T11:58:39;5.00;;;3.53;;
78612;SDS011;67933;51.060;3.638;2023-08-24T12:01:08;7.10;;;4.00;;
78612;SDS011;67933;51.060;3.638;2023-08-24T12:03:38;3.28;;;2.95;;
78612;SDS011;67933;51.060;3.638;2023-08-24T12:06:14;4.18;;;3.17;;
78612;SDS011;67933;51.060;3.638;2023-08-24T12:08:40;5.85;;;3.40;;
78612;SDS011;67933;51.060;3.638;2023-08-24T12:11:13;5.25;;;3.13;;
78612;SDS011;67933;51.060;3.638;2023-08-24T12:13:48;6.15;;;3.20;;
78612;SDS011;67933;51.060;3.638;2023-08-24T12:16:15;5.13;;;2.88;;
78612;SDS011;67933;51.060;3.638;2023-08-24T12:18:50;4.90;;;3.25;;
78612;SDS011;67933;51.060;3.638;2023-08-24T12:21:20;5.63;;;3.60;;
78612;SDS011;67933;51.060;3.638;2023-08-24T12:26:22;4.32;;;3.10;;
78612;SDS011;67933;51.060;3.638;2023-08-24T12:28:51;4.47;;;2.90;;
78612;SDS011;67933;51.060;3.638;2023-08-24T12:31:17;4.85;;;3.10;;
78612;SDS011;67933;51.060;3.638;2023-08-24T12:33:44;4.22;;;2.95;;
78612;SDS011;67933;51.060;3.638;2023-08-24T12:36:10;3.67;;;3.10;;
78612;SDS011;67933;51.060;3.638;2023-08-24T12:38:36;6.00;;;3.45;;
78612;SDS011;67933;51.060;3.638;2023-08-24T12:41:02;3.40;;;2.92;;
78612;SDS011;67933;51.060;3.638;2023-08-24T12:43:27;3.13;;;2.83;;
78612;SDS011;67933;51.060;3.638;2023-08-24T12:45:52;3.60;;;2.95;;
78612;SDS011;67933;51.060;3.638;2023-08-24T12:48:18;5.10;;;3.10;;
78612;SDS011;67933;51.060;3.638;2023-08-24T12:50:43;4.50;;;2.88;;
78612;SDS011;67933;51.060;3.638;2023-08-24T12:53:09;4.78;;;3.10;;
78612;SDS011;67933;51.060;3.638;2023-08-24T12:55:35;5.70;;;2.97;;
78612;SDS011;67933;51.060;3.638;2023-08-24T12:58:01;4.85;;;3.42;;
78612;SDS011;67933;51.060;3.638;2023-08-24T13:00:28;4.63;;;3.08;;
78612;SDS011;67933;51.060;3.638;2023-08-24T13:02:55;5.07;;;3.10;;
78612;SDS011;67933;51.060;3.638;2023-08-24T13:05:20;4.78;;;3.25;;
78612;SDS011;67933;51.060;3.638;2023-08-24T13:07:46;5.10;;;3.00;;
78612;SDS011;67933;51.060;3.638;2023-08-24T13:10:11;6.03;;;3.28;;
78612;SDS011;67933;51.060;3.638;2023-08-24T13:12:37;3.97;;;2.95;;
78612;SDS011;67933;51.060;3.638;2023-08-24T13:15:04;4.53;;;2.92;;
78612;SDS011;67933;51.060;3.638;2023-08-24T13:17:30;4.25;;;3.00;;
78612;SDS011;67933;51.060;3.638;2023-08-24T13:19:55;4.68;;;3.05;;
78612;SDS011;67933;51.060;3.638;2023-08-24T13:22:21;4.78;;;2.72;;
78612;SDS011;67933;51.060;3.638;2023-08-24T13:24:46;7.15;;;3.25;;
78612;SDS011;67933;51.060;3.638;2023-08-24T13:27:11;6.00;;;3.25;;
78612;SDS011;67933;51.060;3.638;2023-08-24T13:29:37;4.68;;;3.05;;
78612;SDS011;67933;51.060;3.638;2023-08-24T13:32:03;3.65;;;3.00;;
78612;SDS011;67933;51.060;3.638;2023-08-24T13:34:29;3.92;;;2.92;;
78612;SDS011;67933;51.060;3.638;2023-08-24T13:36:56;5.30;;;2.63;;
78612;SDS011;67933;51.060;3.638;2023-08-24T13:39:22;4.25;;;2.35;;
78612;SDS011;67933;51.060;3.638;2023-08-24T13:41:48;4.00;;;2.45;;
78612;SDS011;67933;51.060;3.638;2023-08-24T13:44:13;3.40;;;2.50;;
78612;SDS011;67933;51.060;3.638;2023-08-24T13:46:39;3.70;;;2.78;;
78612;SDS011;67933;51.060;3.638;2023-08-24T13:49:04;4.80;;;2.78;;
78612;SDS011;67933;51.060;3.638;2023-08-24T13:51:29;4.63;;;2.75;;
78612;SDS011;67933;51.060;3.638;2023-08-24T13:53:55;3.78;;;2.42;;
78612;SDS011;67933;51.060;3.638;2023-08-24T13:56:20;5.65;;;2.58;;
78612;SDS011;67933;51.060;3.638;2023-08-24T13:58:46;4.70;;;2.53;;
78612;SDS011;67933;51.060;3.638;2023-08-24T14:01:12;5.63;;;2.70;;
78612;SDS011;67933;51.060;3.638;2023-08-24T14:03:38;4.07;;;2.47;;
78612;SDS011;67933;51.060;3.638;2023-08-24T14:06:05;3.67;;;2.78;;
78612;SDS011;67933;51.060;3.638;2023-08-24T14:08:30;4.35;;;2.85;;
78612;SDS011;67933;51.060;3.638;2023-08-24T14:10:56;7.68;;;3.00;;
78612;SDS011;67933;51.060;3.638;2023-08-24T14:13:21;4.03;;;2.80;;
78612;SDS011;67933;51.060;3.638;2023-08-24T14:15:49;4.53;;;2.70;;
78612;SDS011;67933;51.060;3.638;2023-08-24T14:18:15;3.55;;;2.72;;
78612;SDS011;67933;51.060;3.638;2023-08-24T14:20:41;4.20;;;2.85;;
78612;SDS011;67933;51.060;3.638;2023-08-24T14:23:07;6.63;;;2.50;;
78612;SDS011;67933;51.060;3.638;2023-08-24T14:25:33;4.72;;;2.53;;
78612;SDS011;67933;51.060;3.638;2023-08-24T14:27:58;2.90;;;2.40;;
78612;SDS011;67933;51.060;3.638;2023-08-24T14:30:24;5.18;;;2.40;;
78612;SDS011;67933;51.060;3.638;2023-08-24T14:32:50;6.03;;;2.47;;
78612;SDS011;67933;51.060;3.638;2023-08-24T14:35:15;4.88;;;2.20;;
78612;SDS011;67933;51.060;3.638;2023-08-24T14:37:41;3.90;;;2.03;;
78612;SDS011;67933;51.060;3.638;2023-08-24T14:40:07;4.30;;;2.47;;
78612;SDS011;67933;51.060;3.638;2023-08-24T14:42:32;5.07;;;2.72;;
78612;SDS011;67933;51.060;3.638;2023-08-24T14:44:58;3.70;;;2.70;;
78612;SDS011;67933;51.060;3.638;2023-08-24T14:47:24;4.15;;;2.42;;
78612;SDS011;67933;51.060;3.638;2023-08-24T14:49:49;3.70;;;2.55;;